createdAt,value
2022-12-15T00:03:50.946Z,39.42
2022-12-15T00:09:34.746Z,33.97
2022-12-15T00:15:15.965Z,38.22
2022-12-15T00:20:57.409Z,38.33
2022-12-15T00:26:40.022Z,32.30
2022-12-15T00:32:21.876Z,32.30
2022-12-15T00:38:08.646Z,34.78
2022-12-15T00:43:38.078Z,35.22
2022-12-15T00:49:25.169Z,28.52
2022-12-15T00:55:11.630Z,21.33
2022-12-15T01:01:00.356Z,16.58
2022-12-15T01:06:47.808Z,14.25
2022-12-15T01:12:34.566Z,15.93
2022-12-15T01:18:19.408Z,12.25
2022-12-15T01:23:48.031Z,13.55
2022-12-15T01:29:12.446Z,10.82
2022-12-15T01:34:41.024Z,9.32
2022-12-15T01:40:32.055Z,12.50
2022-12-15T01:46:06.621Z,10.35
2022-12-15T01:51:41.103Z,8.73
2022-12-15T01:57:15.011Z,8.35
2022-12-15T02:02:43.914Z,8.90
2022-12-15T02:08:14.715Z,11.15
2022-12-15T02:13:49.719Z,7.40
2022-12-15T02:19:46.024Z,7.03
2022-12-15T02:31:10.467Z,5.70
2022-12-15T02:36:38.677Z,6.60
2022-12-15T02:42:05.603Z,7.47
2022-12-15T02:47:46.179Z,7.38
2022-12-15T02:53:30.290Z,8.68
2022-12-15T02:59:07.611Z,7.13
2022-12-15T03:04:33.837Z,6.40
2022-12-15T03:10:00.586Z,7.18
2022-12-15T03:15:27.992Z,9.13
2022-12-15T03:20:56.221Z,9.30
2022-12-15T03:26:19.887Z,7.70
2022-12-15T03:31:44.716Z,12.18
2022-12-15T03:37:15.412Z,7.70
2022-12-15T03:42:51.792Z,8.35
2022-12-15T03:48:21.077Z,5.82
2022-12-15T03:53:49.395Z,11.13
2022-12-15T03:59:13.996Z,7.57
2022-12-15T04:04:37.938Z,6.65
2022-12-15T04:10:03.016Z,11.65
2022-12-15T04:15:26.726Z,7.55
2022-12-15T04:20:50.516Z,7.53
2022-12-15T04:26:32.616Z,8.55
2022-12-15T04:32:13.655Z,7.82
2022-12-15T04:37:54.667Z,9.70
2022-12-15T04:43:36.610Z,7.97
2022-12-15T04:49:17.252Z,8.95
2022-12-15T04:54:58.268Z,10.25
2022-12-15T05:00:40.910Z,9.20
2022-12-15T05:06:22.168Z,13.00
2022-12-15T05:12:03.290Z,13.52
2022-12-15T05:17:45.989Z,11.25
2022-12-15T05:23:27.394Z,10.02
2022-12-15T05:29:08.726Z,13.55
2022-12-15T05:34:35.278Z,11.63
2022-12-15T05:39:58.702Z,12.80
2022-12-15T05:45:22.432Z,11.13
2022-12-15T05:50:47.439Z,11.07
2022-12-15T05:56:15.301Z,13.38
2022-12-15T06:01:39.048Z,13.73
2022-12-15T06:07:08.447Z,14.43
2022-12-15T06:12:31.349Z,16.98
2022-12-15T06:17:56.230Z,13.43
2022-12-15T06:23:21.877Z,15.32
2022-12-15T06:28:46.824Z,14.00
2022-12-15T06:34:13.980Z,16.13
2022-12-15T06:39:39.083Z,12.23
2022-12-15T06:45:02.407Z,13.43
2022-12-15T06:50:26.037Z,13.95
2022-12-15T06:55:51.593Z,14.32
2022-12-15T07:01:23.285Z,13.57
2022-12-15T07:06:46.876Z,12.82
2022-12-15T07:12:17.976Z,13.02
2022-12-15T07:17:46.844Z,15.02
2022-12-15T07:23:16.245Z,14.65
2022-12-15T07:28:46.439Z,13.33
2022-12-15T07:34:14.941Z,11.90
2022-12-15T07:39:44.309Z,13.07
2022-12-15T07:45:14.812Z,14.85
2022-12-15T07:50:44.142Z,12.23
2022-12-15T08:01:44.221Z,14.70
2022-12-15T08:07:13.648Z,13.35
2022-12-15T08:12:42.829Z,14.27
2022-12-15T08:23:55.119Z,13.45
2022-12-15T08:29:50.200Z,14.43
2022-12-15T08:35:38.905Z,15.40
2022-12-15T08:41:10.539Z,12.18
2022-12-15T08:46:39.943Z,14.38
2022-12-15T08:52:09.333Z,23.75
2022-12-15T08:57:40.712Z,13.93
2022-12-15T09:03:10.210Z,20.60
2022-12-15T09:08:39.328Z,21.87
2022-12-15T09:14:09.209Z,15.50
2022-12-15T09:19:38.220Z,13.80
2022-12-15T09:25:07.792Z,12.83
2022-12-15T09:30:38.456Z,13.27
2022-12-15T09:36:08.240Z,12.68
2022-12-15T09:41:37.688Z,15.95
2022-12-15T09:52:48.651Z,14.93
2022-12-15T09:58:35.165Z,17.52
2022-12-15T10:04:11.478Z,23.63
2022-12-15T10:09:40.402Z,18.48
2022-12-15T10:15:17.959Z,20.83
2022-12-15T14:57:45.199Z,17.55
2022-12-15T15:08:49.192Z,22.63
2022-12-15T15:14:25.482Z,22.17
2022-12-15T15:19:52.477Z,21.77
2022-12-15T15:25:39.862Z,26.13
2022-12-15T15:31:35.302Z,23.38
2022-12-15T15:37:18.292Z,20.83
2022-12-15T15:42:41.812Z,20.13
2022-12-15T15:48:07.554Z,26.15
2022-12-15T15:53:39.577Z,22.42
2022-12-15T15:59:12.627Z,21.17
2022-12-15T16:04:43.042Z,17.52
2022-12-15T16:10:14.693Z,26.55
2022-12-15T16:15:37.885Z,24.85
2022-12-15T16:21:03.202Z,27.25
2022-12-15T16:26:34.235Z,34.08
2022-12-15T16:32:03.028Z,25.70
2022-12-15T16:37:39.325Z,29.98
2022-12-15T16:43:14.695Z,31.67
2022-12-15T16:48:43.577Z,35.72
2022-12-15T16:54:17.904Z,33.65
2022-12-15T16:59:47.456Z,49.63
2022-12-15T17:05:18.314Z,39.10
2022-12-15T17:10:50.231Z,37.05
2022-12-15T17:16:20.776Z,35.88
2022-12-15T17:27:27.810Z,25.70
2022-12-15T17:32:51.798Z,23.23
2022-12-15T17:38:22.827Z,21.60
2022-12-15T17:44:09.698Z,23.92
2022-12-15T17:49:41.559Z,29.85
2022-12-15T17:55:20.292Z,22.50
2022-12-15T18:00:53.671Z,26.30
2022-12-15T18:06:22.319Z,23.17
2022-12-15T18:11:51.675Z,21.30
2022-12-15T18:17:23.458Z,23.05
2022-12-15T18:22:53.586Z,22.90
2022-12-15T18:28:24.364Z,21.02
2022-12-15T18:34:00.959Z,21.48
2022-12-15T18:39:31.590Z,20.50
2022-12-15T18:45:02.276Z,24.60
2022-12-15T18:50:32.839Z,22.75
2022-12-15T18:56:02.622Z,20.08
2022-12-15T19:01:31.447Z,24.55
2022-12-15T19:07:06.599Z,21.40
2022-12-15T19:12:35.265Z,23.23
2022-12-15T19:18:30.621Z,25.55
2022-12-15T19:24:00.980Z,20.77
2022-12-15T19:29:30.642Z,23.05
2022-12-15T22:31:42.808Z,25.13
2022-12-15T22:37:08.655Z,18.90
2022-12-15T22:42:33.101Z,21.38
2022-12-15T22:48:05.890Z,22.88
2022-12-15T22:53:32.469Z,20.73
2022-12-15T22:59:00.086Z,21.35
2022-12-15T23:04:26.255Z,21.05
2022-12-15T23:10:11.204Z,19.58
2022-12-15T23:15:55.191Z,32.03
2022-12-15T23:21:21.345Z,34.55
2022-12-15T23:26:49.893Z,42.03
2022-12-15T23:32:12.065Z,41.75
2022-12-15T23:37:42.364Z,37.87
2022-12-15T23:43:06.506Z,34.85
2022-12-15T23:48:37.713Z,41.28
2022-12-15T23:54:08.128Z,43.83
2022-12-15T23:59:36.618Z,40.28
